Terminal Aerodrome Forecast
Issued by NWS Austin/San Antonio, TX

Home | Current Version | Previous Version | Text Only | Print | Product List | Glossary On
Versions: 1 2 3 4 5 6 7 8 9 10 11 12 13 14
364
FTUS44 KEWX 291738
TAFDRT
TAF
KDRT 291738Z 2918/3018 31012G22KT P6SM SCT030 BKN250
     FM300000 32020G30KT P6SM SCT100 BKN250
     FM300700 32015G25KT P6SM SCT250=

USA.gov is the U.S. government's official web portal to all federal, state and local government web resources and services.